Time;durP1;ratioP1;P1;durP2;ratioP2;P2;SDS_P1;SDS_P2;PMS_P1;PMS_P2;Temp;Humidity;BMP_temperature;BMP_pressure;BME280_temperature;BME280_humidity;BME280_pressure;Samples;Min_cycle;Max_cycle;Signal;HPM_P1;HPM_P2
2022/12/18 00:01:28;;;;;;;84.80;25.83;;;-5.10;99.90;;;;;;5055422;28;20188;-73
2022/12/18 00:03:55;;;;;;;83.63;26.95;;;-5.20;99.90;;;;;;5074592;28;20060;-73
2022/12/18 00:06:22;;;;;;;86.93;27.52;;;-5.20;99.90;;;;;;5068818;28;20031;-73
2022/12/18 00:08:48;;;;;;;86.10;25.42;;;-5.30;99.90;;;;;;5071787;28;20060;-72
2022/12/18 00:11:20;;;;;;;79.93;27.58;;;-5.30;99.90;;;;;;5072057;28;20425;-73
2022/12/18 00:13:46;;;;;;;76.20;25.03;;;-5.40;99.90;;;;;;5063683;28;20033;-73
2022/12/18 00:16:14;;;;;;;86.50;27.25;;;-5.40;99.90;;;;;;5065415;28;20043;-73
2022/12/18 00:18:40;;;;;;;76.05;23.27;;;-5.50;99.90;;;;;;5071232;28;20127;-73
2022/12/18 00:21:08;;;;;;;72.20;24.73;;;-5.50;99.90;;;;;;5071933;28;20036;-73
2022/12/18 00:23:35;;;;;;;80.63;26.20;;;-5.50;99.90;;;;;;5073081;28;20051;-73
2022/12/18 00:26:02;;;;;;;77.13;22.92;;;-5.50;99.90;;;;;;5064969;28;20441;-73
2022/12/18 00:28:28;;;;;;;77.78;25.38;;;-5.50;99.90;;;;;;5072715;28;20102;-73
2022/12/18 00:31:15;;;;;;;80.47;26.10;;;-5.50;99.90;;;;;;5074239;28;20476;-73
2022/12/18 00:33:40;;;;;;;81.25;25.05;;;-5.50;99.90;;;;;;5059065;28;20021;-72
2022/12/18 00:36:21;;;;;;;86.47;28.35;;;-5.50;99.90;;;;;;5072592;28;20028;-72
2022/12/18 00:38:48;;;;;;;84.80;27.65;;;-5.50;99.90;;;;;;5054395;28;20082;-73
2022/12/18 00:42:55;;;;;;;95.70;28.80;;;-5.50;99.90;;;;;;5071159;28;20369;-73
2022/12/18 00:44:00;;;;;;;91.65;29.63;;;-5.50;99.90;;;;;;5074590;28;20412;-73
2022/12/18 00:46:26;;;;;;;90.30;27.33;;;-5.50;99.90;;;;;;5063522;28;20032;-73
2022/12/18 00:48:51;;;;;;;76.00;28.75;;;-5.50;99.90;;;;;;5069271;28;20030;-73
2022/12/18 00:51:17;;;;;;;87.50;28.00;;;-5.60;99.90;;;;;;5068296;28;20032;-73
2022/12/18 00:53:42;;;;;;;74.60;26.45;;;-5.60;99.90;;;;;;5072752;28;20107;-73
2022/12/18 00:56:08;;;;;;;77.82;28.77;;;-5.60;99.90;;;;;;5074014;28;20021;-73
2022/12/18 00:58:33;;;;;;;80.18;26.90;;;-5.60;99.90;;;;;;5071469;28;20101;-73
2022/12/18 01:01:00;;;;;;;77.32;26.55;;;-5.50;99.90;;;;;;5047333;28;20031;-73
2022/12/18 01:03:25;;;;;;;85.18;28.15;;;-5.60;99.90;;;;;;5067517;28;20492;-73
2022/12/18 01:05:51;;;;;;;71.22;26.48;;;-5.50;99.90;;;;;;5065643;28;20028;-73
2022/12/18 01:08:16;;;;;;;77.20;27.48;;;-5.60;99.90;;;;;;5063541;28;20100;-73
2022/12/18 01:10:42;;;;;;;79.18;27.80;;;-5.60;99.90;;;;;;5073045;28;20560;-74
2022/12/18 01:13:08;;;;;;;71.65;25.50;;;-5.60;99.90;;;;;;5072446;28;20115;-73
2022/12/18 01:15:33;;;;;;;73.18;25.75;;;-5.60;99.90;;;;;;5073200;28;20033;-73
2022/12/18 01:17:59;;;;;;;75.00;26.30;;;-5.60;99.90;;;;;;5070887;28;20119;-73
2022/12/18 01:20:24;;;;;;;70.10;24.63;;;-5.60;99.90;;;;;;5074096;28;20025;-73
2022/12/18 01:22:50;;;;;;;69.78;26.55;;;-5.60;99.90;;;;;;5094156;28;20085;-73
2022/12/18 01:25:16;;;;;;;69.60;27.30;;;-5.60;99.90;;;;;;5064171;28;20105;-73
2022/12/18 01:27:41;;;;;;;63.00;22.75;;;-5.60;99.90;;;;;;5070789;28;20480;-73
2022/12/18 01:30:07;;;;;;;67.60;23.75;;;-5.70;99.90;;;;;;5066519;28;20061;-73
2022/12/18 01:32:33;;;;;;;63.38;22.65;;;-5.70;99.90;;;;;;5064019;28;20033;-73
2022/12/18 01:34:59;;;;;;;59.92;23.67;;;-5.70;99.90;;;;;;5057190;28;20024;-72
2022/12/18 01:37:24;;;;;;;63.42;24.88;;;-5.60;99.90;;;;;;5071173;28;20058;-72
2022/12/18 01:39:52;;;;;;;64.57;25.00;;;-5.60;99.90;;;;;;5072837;28;20416;-74
2022/12/18 01:42:17;;;;;;;61.85;24.17;;;-5.60;99.90;;;;;;5072564;28;20495;-74
2022/12/18 01:45:06;;;;;;;59.88;22.40;;;-5.60;99.90;;;;;;5052178;28;20056;-73
2022/12/18 01:47:37;;;;;;;58.33;22.67;;;-5.60;99.90;;;;;;5069179;28;20021;-74
2022/12/18 01:50:23;;;;;;;56.58;21.25;;;-5.60;99.90;;;;;;5071448;28;20031;-73
2022/12/18 01:53:03;;;;;;;60.63;23.83;;;-5.60;99.90;;;;;;5070784;28;20044;-74
2022/12/18 01:55:35;;;;;;;66.85;22.10;;;-5.60;99.90;;;;;;5072741;28;20090;-74
2022/12/18 01:58:00;;;;;;;53.15;20.70;;;-5.60;99.90;;;;;;5070789;28;20047;-73
2022/12/18 02:00:27;;;;;;;56.47;22.58;;;-5.60;99.90;;;;;;5071433;28;20392;-73
2022/12/18 02:02:53;;;;;;;53.67;20.25;;;-5.60;99.90;;;;;;5057527;28;20451;-74
2022/12/18 02:05:29;;;;;;;60.28;21.27;;;-5.60;99.90;;;;;;5071344;28;20025;-74
2022/12/18 02:08:27;;;;;;;58.17;21.25;;;-5.60;99.90;;;;;;5071100;28;20023;-74
2022/12/18 02:11:02;;;;;;;51.55;20.70;;;-5.60;99.90;;;;;;5059060;28;20084;-74
2022/12/18 02:13:56;;;;;;;51.22;20.67;;;-5.60;99.90;;;;;;5070165;28;20021;-73
2022/12/18 02:16:27;;;;;;;56.08;21.20;;;-5.60;99.90;;;;;;5059486;28;20409;-73
2022/12/18 02:19:00;;;;;;;50.70;20.10;;;-5.60;99.90;;;;;;5069894;28;20451;-74
2022/12/18 02:21:57;;;;;;;48.40;21.15;;;-5.60;99.90;;;;;;5069774;28;20414;-74
2022/12/18 02:24:49;;;;;;;50.72;18.70;;;-5.60;99.90;;;;;;5061142;28;20040;-74
2022/12/18 02:27:15;;;;;;;35.03;14.77;;;-5.50;99.90;;;;;;5062715;28;20029;-74
2022/12/18 02:29:53;;;;;;;49.25;19.75;;;-5.50;99.90;;;;;;5066123;28;20082;-74
2022/12/18 02:32:25;;;;;;;48.58;18.77;;;-5.50;99.90;;;;;;5042649;28;20054;-74
2022/12/18 02:34:52;;;;;;;48.17;19.30;;;-5.50;99.90;;;;;;5069178;28;20021;-74
2022/12/18 02:37:19;;;;;;;43.38;19.05;;;-5.50;99.90;;;;;;5064644;28;20025;-74
2022/12/18 02:39:48;;;;;;;45.50;17.85;;;-5.60;99.90;;;;;;5068515;28;20020;-73
2022/12/18 02:42:13;;;;;;;56.17;20.00;;;-5.50;99.90;;;;;;5072556;28;20085;-73
2022/12/18 02:44:47;;;;;;;43.55;18.90;;;-5.60;99.90;;;;;;5053629;28;20028;-74
2022/12/18 02:47:16;;;;;;;47.72;18.23;;;-5.60;99.90;;;;;;5064071;28;20036;-73
2022/12/18 02:50:03;;;;;;;46.28;17.70;;;-5.60;99.90;;;;;;5068999;28;20028;-75
2022/12/18 02:52:56;;;;;;;51.78;18.77;;;-5.60;99.90;;;;;;5055576;28;20032;-73
2022/12/18 02:55:39;;;;;;;50.00;18.70;;;-5.60;99.90;;;;;;5069573;28;20029;-74
2022/12/18 02:58:07;;;;;;;;;;;-5.70;99.90;;;;;;5056250;28;20495;-73
2022/12/18 03:00:52;;;;;;;47.47;16.67;;;-5.70;99.90;;;;;;5062994;28;19909;-73
2022/12/18 03:03:43;;;;;;;45.63;17.75;;;-5.70;99.90;;;;;;5068971;28;20035;-73
2022/12/18 03:06:20;;;;;;;43.08;17.52;;;-5.70;99.90;;;;;;5054469;28;20032;-73
2022/12/18 03:08:54;;;;;;;40.80;16.42;;;-5.80;99.90;;;;;;5066441;28;20024;-73
2022/12/18 03:12:22;;;;;;;48.08;19.25;;;-5.80;99.90;;;;;;5059150;28;20031;-73
2022/12/18 03:14:07;;;;;;;44.20;17.27;;;-5.80;99.90;;;;;;5070326;28;20400;-73
2022/12/18 03:16:34;;;;;;;41.03;17.50;;;-5.90;99.90;;;;;;5070681;28;20036;-73
2022/12/18 03:19:09;;;;;;;44.00;17.98;;;-5.90;99.90;;;;;;5064040;28;20038;-73
2022/12/18 03:21:41;;;;;;;46.75;17.85;;;-5.90;99.90;;;;;;5069798;28;20017;-73
2022/12/18 03:24:09;;;;;;;34.92;13.77;;;-5.90;99.90;;;;;;5065541;28;20025;-73
2022/12/18 03:26:36;;;;;;;38.25;16.77;;;-5.90;99.90;;;;;;5059418;28;20037;-73
2022/12/18 03:29:08;;;;;;;43.63;17.67;;;-5.90;99.90;;;;;;5070083;28;20032;-73
2022/12/18 03:31:35;;;;;;;42.75;17.02;;;-5.90;99.90;;;;;;5052077;28;20488;-73
2022/12/18 03:34:05;;;;;;;41.33;17.05;;;-6.00;99.90;;;;;;5072363;28;20028;-73
2022/12/18 03:36:31;;;;;;;40.85;17.10;;;-6.00;99.90;;;;;;5051225;28;20430;-73
2022/12/18 03:38:57;;;;;;;42.95;17.13;;;-6.00;99.90;;;;;;5068959;28;20128;-73
2022/12/18 03:41:33;;;;;;;41.25;16.67;;;-6.00;99.90;;;;;;5070364;28;20154;-73
2022/12/18 03:44:10;;;;;;;39.90;16.42;;;-6.00;99.90;;;;;;5053757;28;20061;-73
2022/12/18 03:46:43;;;;;;;36.40;15.57;;;-6.10;99.90;;;;;;5065933;28;20067;-73
2022/12/18 03:49:14;;;;;;;39.95;16.33;;;-6.00;99.90;;;;;;5068350;28;20105;-73
2022/12/18 03:51:54;;;;;;;36.80;15.90;;;-6.00;99.90;;;;;;5071659;28;20031;-73
2022/12/18 03:54:21;;;;;;;36.92;15.60;;;-6.10;99.90;;;;;;5052938;28;20033;-73
2022/12/18 03:56:53;;;;;;;37.63;15.30;;;-6.00;99.90;;;;;;5070696;28;20028;-73
2022/12/18 03:59:19;;;;;;;40.70;16.35;;;-6.00;99.90;;;;;;5076031;28;20076;-74
2022/12/18 04:01:50;;;;;;;38.25;17.27;;;-5.90;99.90;;;;;;5067080;28;20029;-73
2022/12/18 04:04:18;;;;;;;37.55;15.32;;;-5.90;99.90;;;;;;5067434;28;20035;-74
2022/12/18 04:06:46;;;;;;;37.67;16.27;;;-5.90;99.90;;;;;;5059782;28;21484;-73
2022/12/18 04:09:13;;;;;;;33.72;15.32;;;-5.80;99.90;;;;;;5064559;28;20037;-72
2022/12/18 04:11:40;;;;;;;37.00;15.02;;;-5.90;99.90;;;;;;5067004;28;20025;-73
2022/12/18 04:14:06;;;;;;;40.05;15.77;;;-5.80;99.90;;;;;;5069170;28;20024;-73
2022/12/18 04:16:31;;;;;;;34.50;14.77;;;-5.80;99.90;;;;;;5061030;28;20369;-73
2022/12/18 04:18:57;;;;;;;35.42;14.75;;;-5.80;99.90;;;;;;5066705;28;20044;-73
2022/12/18 04:21:22;;;;;;;42.13;15.10;;;-5.80;99.90;;;;;;5069092;28;20097;-72
2022/12/18 04:23:48;;;;;;;34.55;14.20;;;-5.80;99.90;;;;;;5073430;28;20026;-73
2022/12/18 04:26:14;;;;;;;34.53;15.20;;;-5.80;99.90;;;;;;5062869;28;20366;-73
2022/12/18 04:28:39;;;;;;;30.42;14.60;;;-5.70;99.90;;;;;;5069744;28;20078;-72
2022/12/18 04:31:05;;;;;;;33.97;14.30;;;-5.70;99.90;;;;;;5066034;28;20092;-73
2022/12/18 04:33:31;;;;;;;37.35;15.68;;;-5.70;99.90;;;;;;5072270;28;20515;-73
2022/12/18 04:35:56;;;;;;;32.50;13.20;;;-5.70;99.90;;;;;;5071718;28;20664;-73
2022/12/18 04:38:22;;;;;;;35.72;14.30;;;-5.70;99.90;;;;;;5072328;28;20033;-73
2022/12/18 04:40:48;;;;;;;33.88;13.02;;;-5.70;99.90;;;;;;5066503;28;20098;-72
2022/12/18 04:43:13;;;;;;;35.50;14.40;;;-5.60;99.90;;;;;;5071567;28;20025;-73
2022/12/18 04:45:39;;;;;;;30.08;13.60;;;-5.60;99.90;;;;;;5058191;28;20033;-72
2022/12/18 04:48:05;;;;;;;32.38;13.93;;;-5.60;99.90;;;;;;5073320;28;20473;-73
2022/12/18 04:50:31;;;;;;;24.85;12.43;;;-5.60;99.90;;;;;;5065765;28;20032;-73
2022/12/18 04:52:56;;;;;;;33.67;12.25;;;-5.50;99.90;;;;;;5072436;28;20123;-73
2022/12/18 04:55:25;;;;;;;34.20;14.90;;;-5.50;99.90;;;;;;5074456;28;20081;-73
2022/12/18 04:57:51;;;;;;;30.40;12.93;;;-5.60;99.90;;;;;;5069997;28;20500;-73
2022/12/18 05:00:17;;;;;;;28.02;12.63;;;-5.60;99.90;;;;;;5071921;28;20165;-73
2022/12/18 05:02:42;;;;;;;31.08;12.45;;;-5.60;99.90;;;;;;5052125;28;20078;-73
2022/12/18 05:05:08;;;;;;;27.13;12.63;;;-5.60;99.90;;;;;;5072882;28;20365;-73
2022/12/18 05:07:34;;;;;;;28.95;13.57;;;-5.60;99.90;;;;;;5072558;28;20028;-73
2022/12/18 05:09:59;;;;;;;34.33;13.93;;;-5.60;99.90;;;;;;5072272;28;20044;-73
2022/12/18 05:12:25;;;;;;;32.67;13.25;;;-5.60;99.90;;;;;;5068806;28;20025;-73
2022/12/18 05:14:50;;;;;;;32.13;13.20;;;-5.70;99.90;;;;;;5070231;28;20025;-72
2022/12/18 05:17:16;;;;;;;31.52;13.38;;;-5.70;99.90;;;;;;5070963;28;20488;-73
2022/12/18 05:19:42;;;;;;;30.65;12.02;;;-5.70;99.90;;;;;;5071791;28;20075;-73
2022/12/18 05:22:08;;;;;;;31.33;13.60;;;-5.70;99.90;;;;;;5073307;28;20025;-73
2022/12/18 05:24:33;;;;;;;31.40;13.27;;;-5.70;99.90;;;;;;5071603;28;20082;-73
2022/12/18 05:26:59;;;;;;;31.35;12.55;;;-5.70;99.90;;;;;;5069758;28;20095;-73
2022/12/18 05:29:24;;;;;;;35.28;14.25;;;-5.70;99.90;;;;;;5070566;28;20040;-74
2022/12/18 05:31:50;;;;;;;36.55;14.00;;;-5.70;99.90;;;;;;5072581;28;20047;-73
2022/12/18 05:34:16;;;;;;;27.60;12.25;;;-5.70;99.90;;;;;;5066838;28;20032;-72
2022/12/18 05:36:42;;;;;;;38.80;13.15;;;-5.80;99.90;;;;;;5059637;28;20025;-72
2022/12/18 05:39:07;;;;;;;30.02;13.05;;;-5.80;99.90;;;;;;5071155;28;20076;-73
2022/12/18 05:41:33;;;;;;;27.70;12.35;;;-5.80;99.90;;;;;;5071317;28;20488;-73
2022/12/18 05:43:59;;;;;;;36.50;14.48;;;-5.80;99.90;;;;;;5062944;28;20029;-73
2022/12/18 05:46:25;;;;;;;29.05;13.02;;;-5.80;99.90;;;;;;5066804;28;20064;-73
2022/12/18 05:48:50;;;;;;;31.73;14.05;;;-5.80;99.90;;;;;;5071021;28;20028;-73
2022/12/18 05:51:19;;;;;;;33.15;13.82;;;-5.70;99.90;;;;;;5068925;28;20028;-73
2022/12/18 05:53:45;;;;;;;31.10;14.32;;;-5.70;99.90;;;;;;5073208;28;20024;-73
2022/12/18 05:56:16;;;;;;;34.47;13.57;;;-5.70;99.90;;;;;;5065498;28;20028;-73
2022/12/18 05:58:42;;;;;;;37.00;14.98;;;-5.70;99.90;;;;;;5061596;28;20516;-73
2022/12/18 06:01:15;;;;;;;35.63;13.43;;;-5.70;99.90;;;;;;5071367;28;20028;-73
2022/12/18 06:03:41;;;;;;;32.95;14.48;;;-5.70;99.90;;;;;;5054253;28;20540;-73
2022/12/18 06:06:18;;;;;;;35.05;14.68;;;-5.70;99.90;;;;;;5069451;28;20024;-72
2022/12/18 06:08:44;;;;;;;31.42;14.43;;;-5.60;99.90;;;;;;5071331;28;20025;-73
2022/12/18 06:11:10;;;;;;;29.15;12.80;;;-5.60;99.90;;;;;;5066408;28;20043;-73
2022/12/18 06:13:36;;;;;;;32.88;14.35;;;-5.60;99.90;;;;;;5070955;28;20033;-72
2022/12/18 06:16:05;;;;;;;31.48;13.02;;;-5.50;99.90;;;;;;5069651;28;20028;-73
2022/12/18 06:18:31;;;;;;;30.80;14.18;;;-5.50;99.90;;;;;;5071596;28;20036;-73
2022/12/18 06:20:58;;;;;;;34.38;13.38;;;-5.50;99.90;;;;;;5066637;28;20092;-72
2022/12/18 06:23:24;;;;;;;33.33;13.95;;;-5.40;99.90;;;;;;5043567;28;20137;-73
2022/12/18 06:25:50;;;;;;;28.00;12.80;;;-5.50;99.90;;;;;;5068517;28;20476;-73
2022/12/18 06:28:16;;;;;;;36.28;14.20;;;-5.50;99.90;;;;;;5068103;28;20028;-73
2022/12/18 06:30:45;;;;;;;30.48;12.43;;;-5.50;99.90;;;;;;5068669;28;20031;-73
2022/12/18 06:33:11;;;;;;;22.55;10.77;;;-5.50;99.90;;;;;;5070364;28;20036;-73
2022/12/18 06:35:36;;;;;;;37.00;15.45;;;-5.40;99.90;;;;;;5072316;28;20032;-73
2022/12/18 06:38:03;;;;;;;32.30;13.13;;;-5.40;99.90;;;;;;5070738;28;20032;-73
2022/12/18 06:40:29;;;;;;;31.52;13.88;;;-5.30;99.90;;;;;;5068310;28;20138;-73
2022/12/18 06:42:54;;;;;;;27.90;12.95;;;-5.20;99.90;;;;;;5069085;28;20028;-73
2022/12/18 06:45:20;;;;;;;32.22;14.13;;;-5.20;99.90;;;;;;5066099;28;20033;-74
2022/12/18 06:47:45;;;;;;;31.13;14.40;;;-5.20;99.90;;;;;;5071558;28;20032;-73
2022/12/18 06:50:12;;;;;;;31.23;13.77;;;-5.20;99.90;;;;;;5065045;28;20108;-73
2022/12/18 06:52:39;;;;;;;27.88;12.45;;;-5.10;99.90;;;;;;5059754;28;20033;-73
2022/12/18 06:55:05;;;;;;;28.40;13.05;;;-5.10;99.90;;;;;;5065820;28;20067;-73
2022/12/18 06:57:30;;;;;;;30.85;13.95;;;-5.00;99.90;;;;;;5052898;28;20492;-73
2022/12/18 06:59:56;;;;;;;31.98;13.10;;;-5.00;99.90;;;;;;5077583;28;20025;-73
2022/12/18 07:02:21;;;;;;;30.02;13.02;;;-5.00;99.90;;;;;;5070798;28;20020;-73
2022/12/18 07:04:47;;;;;;;25.55;12.13;;;-5.00;99.90;;;;;;5049445;28;20024;-72
2022/12/18 07:07:12;;;;;;;36.47;14.00;;;-4.90;99.90;;;;;;5069284;28;20384;-73
2022/12/18 07:09:38;;;;;;;29.73;14.25;;;-4.90;99.90;;;;;;5072863;28;20032;-73
2022/12/18 07:12:04;;;;;;;30.02;11.23;;;-4.90;99.90;;;;;;5071394;28;20488;-73
2022/12/18 07:14:30;;;;;;;28.98;14.30;;;-4.90;99.90;;;;;;5071690;28;20028;-73
2022/12/18 07:16:55;;;;;;;30.23;13.68;;;-4.90;99.90;;;;;;5070729;28;20043;-73
2022/12/18 07:19:24;;;;;;;31.33;13.95;;;-4.90;99.90;;;;;;5071894;28;20122;-73
2022/12/18 07:21:50;;;;;;;32.97;13.38;;;-4.80;99.90;;;;;;5072082;28;20559;-73
2022/12/18 07:24:16;;;;;;;28.65;13.13;;;-4.80;99.90;;;;;;5062859;28;20105;-73
2022/12/18 07:26:41;;;;;;;27.25;12.63;;;-4.80;99.90;;;;;;5063617;28;20020;-73
2022/12/18 07:29:07;;;;;;;30.05;13.55;;;-4.80;99.90;;;;;;5062469;28;20029;-73
2022/12/18 07:31:33;;;;;;;26.67;13.32;;;-4.80;99.90;;;;;;5068912;28;20103;-73
2022/12/18 07:33:59;;;;;;;22.80;10.95;;;-4.80;99.90;;;;;;5068227;28;20392;-73
2022/12/18 07:36:24;;;;;;;27.60;12.30;;;-4.80;99.90;;;;;;5069727;28;20025;-73
2022/12/18 07:38:52;;;;;;;27.27;12.90;;;-4.70;99.90;;;;;;5067583;28;20982;-73
2022/12/18 07:41:18;;;;;;;28.95;12.65;;;-4.70;99.90;;;;;;5050954;28;20024;-73
2022/12/18 07:43:44;;;;;;;31.08;14.85;;;-4.70;99.90;;;;;;5077976;28;20051;-74
2022/12/18 07:46:13;;;;;;;31.35;14.80;;;-4.70;99.90;;;;;;5070858;28;20021;-73
2022/12/18 07:48:42;;;;;;;27.38;12.82;;;-4.60;99.90;;;;;;5070398;28;20017;-73
2022/12/18 07:51:09;;;;;;;28.30;12.55;;;-4.60;99.90;;;;;;5070131;28;20023;-73
2022/12/18 07:53:36;;;;;;;25.73;11.68;;;-4.60;99.90;;;;;;5072017;28;20116;-73
2022/12/18 07:56:05;;;;;;;26.48;11.82;;;-4.60;99.90;;;;;;5068511;28;20052;-73
2022/12/18 07:58:31;;;;;;;30.00;13.05;;;-4.50;99.90;;;;;;5054320;28;20106;-73
2022/12/18 08:01:12;;;;;;;26.73;13.68;;;-4.50;99.90;;;;;;5058978;28;20029;-72
2022/12/18 08:03:38;;;;;;;28.38;13.38;;;-4.50;99.90;;;;;;5075097;28;20074;-73
2022/12/18 08:06:07;;;;;;;24.83;12.52;;;-4.40;99.90;;;;;;5074667;28;20056;-73
2022/12/18 08:08:33;;;;;;;26.92;12.90;;;-4.30;99.90;;;;;;5074695;28;20384;-73
2022/12/18 08:10:59;;;;;;;26.70;13.15;;;-4.30;99.90;;;;;;5074508;28;20052;-73
2022/12/18 08:13:26;;;;;;;29.60;13.20;;;-4.30;99.90;;;;;;5073972;28;20043;-73
2022/12/18 08:15:59;;;;;;;27.88;13.20;;;-4.20;99.90;;;;;;5073764;28;20495;-73
2022/12/18 08:18:25;;;;;;;31.10;13.75;;;-4.20;99.90;;;;;;5074281;28;20032;-73
2022/12/18 08:20:51;;;;;;;27.10;12.65;;;-4.10;99.90;;;;;;5073202;28;20545;-73
2022/12/18 08:23:16;;;;;;;27.33;13.82;;;-4.10;99.90;;;;;;5067349;28;20044;-73
2022/12/18 08:25:42;;;;;;;27.25;12.07;;;-4.00;99.90;;;;;;5072593;28;20417;-74
2022/12/18 08:28:07;;;;;;;28.10;12.85;;;-3.90;99.90;;;;;;5073753;28;20104;-73
2022/12/18 08:30:33;;;;;;;25.73;12.40;;;-3.90;99.90;;;;;;5069474;28;20028;-73
2022/12/18 08:32:58;;;;;;;29.13;13.25;;;-3.80;99.90;;;;;;5074593;28;20028;-73
2022/12/18 08:35:24;;;;;;;26.75;12.80;;;-3.70;99.90;;;;;;5074458;28;20012;-73
2022/12/18 08:37:50;;;;;;;32.63;14.20;;;-3.70;99.90;;;;;;5072390;28;20040;-73
2022/12/18 08:40:16;;;;;;;28.15;13.57;;;-3.60;99.90;;;;;;5073117;28;20032;-73
2022/12/18 08:45:26;;;;;;;30.98;13.52;;;-3.50;99.90;;;;;;5072906;28;20174;-74
2022/12/18 08:47:52;;;;;;;30.00;14.25;;;-3.50;99.90;;;;;;5069003;28;20103;-74
2022/12/18 08:50:17;;;;;;;25.48;12.30;;;-3.50;99.90;;;;;;5064184;28;20107;-73
2022/12/18 08:52:43;;;;;;;28.10;12.15;;;-3.40;99.90;;;;;;5073381;28;20032;-73
2022/12/18 08:55:09;;;;;;;31.77;14.30;;;-3.40;99.90;;;;;;5070487;28;20021;-73
2022/12/18 08:57:34;;;;;;;24.23;12.57;;;-3.40;99.90;;;;;;5071681;28;20051;-73
2022/12/18 09:00:00;;;;;;;26.75;12.43;;;-3.30;99.90;;;;;;5048565;28;20035;-74
2022/12/18 09:02:26;;;;;;;27.25;12.82;;;-3.30;99.90;;;;;;5073159;28;20024;-74
2022/12/18 09:04:51;;;;;;;27.75;12.65;;;-3.20;99.90;;;;;;5053137;28;20139;-74
2022/12/18 09:07:17;;;;;;;23.35;11.18;;;-3.20;99.90;;;;;;5072365;28;20547;-74
2022/12/18 09:09:42;;;;;;;30.40;13.65;;;-3.10;99.90;;;;;;5074100;28;20024;-74
2022/12/18 09:12:08;;;;;;;25.23;12.00;;;-3.00;99.90;;;;;;5073760;28;20043;-74
2022/12/18 09:14:34;;;;;;;26.98;12.45;;;-3.00;99.90;;;;;;5072593;28;20042;-74
2022/12/18 09:16:59;;;;;;;26.65;12.45;;;-2.90;99.90;;;;;;5073120;28;20033;-74
2022/12/18 09:19:25;;;;;;;27.00;13.32;;;-2.90;99.90;;;;;;5070142;28;20036;-74
2022/12/18 09:21:50;;;;;;;25.90;12.40;;;-2.90;99.90;;;;;;5070397;28;20052;-74
2022/12/18 09:24:17;;;;;;;29.75;12.48;;;-2.80;99.90;;;;;;5067530;28;20039;-73
2022/12/18 09:26:43;;;;;;;26.08;12.93;;;-2.80;99.90;;;;;;5062432;28;20025;-74
2022/12/18 09:29:09;;;;;;;28.15;12.57;;;-2.70;99.90;;;;;;5064578;28;20029;-74
2022/12/18 09:31:35;;;;;;;29.08;13.15;;;-2.70;99.90;;;;;;5071925;28;20044;-74
2022/12/18 09:34:01;;;;;;;26.15;12.68;;;-2.60;99.90;;;;;;5073177;28;20399;-74
2022/12/18 09:36:27;;;;;;;27.70;12.40;;;-2.50;99.90;;;;;;5064831;28;20033;-73
2022/12/18 09:38:53;;;;;;;23.27;11.55;;;-2.50;99.90;;;;;;5065384;28;20033;-73
2022/12/18 09:41:54;;;;;;;28.40;13.02;;;-2.40;99.90;;;;;;5073669;28;20389;-73
2022/12/18 09:44:43;;;;;;;29.65;13.32;;;-2.40;99.90;;;;;;5073119;28;20021;-73
2022/12/18 09:47:23;;;;;;;23.08;11.02;;;-2.30;99.90;;;;;;5066981;28;20059;-73
2022/12/18 09:49:52;;;;;;;21.92;10.90;;;-2.30;99.90;;;;;;5070274;28;20029;-73
2022/12/18 09:52:39;;;;;;;23.10;11.68;;;-2.20;99.90;;;;;;5066294;28;20048;-73
2022/12/18 09:55:24;;;;;;;28.70;12.52;;;-2.20;99.90;;;;;;5073095;28;20036;-73
2022/12/18 09:57:55;;;;;;;26.20;12.43;;;-2.10;99.90;;;;;;5053331;28;20060;-73
2022/12/18 10:00:23;;;;;;;27.75;11.65;;;-2.00;99.90;;;;;;5065895;28;20027;-73
2022/12/18 10:02:59;;;;;;;23.42;12.05;;;-2.00;99.90;;;;;;5070538;28;20029;-73
2022/12/18 10:06:00;;;;;;;25.23;11.70;;;-2.00;99.90;;;;;;5073048;28;20023;-73
2022/12/18 10:08:44;;;;;;;27.33;11.93;;;-1.90;99.90;;;;;;5073309;28;20027;-73
2022/12/18 10:11:38;;;;;;;29.20;12.85;;;-1.90;99.90;;;;;;5071119;28;20108;-73
2022/12/18 10:14:18;;;;;;;22.17;11.48;;;-1.80;99.90;;;;;;5072232;28;20025;-73
2022/12/18 10:16:50;;;;;;;25.88;11.85;;;-1.70;99.90;;;;;;5072524;28;20029;-74
2022/12/18 10:19:36;;;;;;;26.70;12.03;;;-1.70;99.90;;;;;;5066940;28;20480;-73
2022/12/18 10:22:55;;;;;;;22.90;10.85;;;-1.70;99.90;;;;;;5071683;28;20039;-73
2022/12/18 10:25:40;;;;;;;25.05;11.98;;;-1.50;99.90;;;;;;5073061;28;20028;-73
2022/12/18 10:28:14;;;;;;;27.95;11.48;;;-1.50;99.90;;;;;;5069953;28;20024;-73
2022/12/18 10:30:42;;;;;;;23.88;11.20;;;-1.50;99.90;;;;;;5062197;28;20127;-73
2022/12/18 10:33:16;;;;;;;25.70;11.65;;;-1.40;99.90;;;;;;5052425;28;20447;-73
2022/12/18 10:35:42;;;;;;;21.27;10.57;;;-1.40;99.90;;;;;;5072457;28;20028;-73
2022/12/18 10:38:21;;;;;;;22.90;10.55;;;-1.30;99.90;;;;;;5072451;28;20032;-73
2022/12/18 10:41:25;;;;;;;26.05;11.43;;;-1.30;99.90;;;;;;5056930;28;20024;-73
2022/12/18 10:44:20;;;;;;;21.67;10.10;;;-1.20;99.90;;;;;;5070311;28;20029;-73
2022/12/18 10:46:55;;;;;;;21.67;10.82;;;-1.20;99.90;;;;;;5072336;28;20380;-73
2022/12/18 10:49:31;;;;;;;23.08;11.60;;;-1.20;99.90;;;;;;5072504;28;20032;-75
2022/12/18 10:52:17;;;;;;;25.90;11.55;;;-1.10;99.90;;;;;;5071487;28;20020;-74
2022/12/18 10:54:57;;;;;;;25.88;11.80;;;-1.10;99.90;;;;;;5054018;28;20028;-73
2022/12/18 10:57:30;;;;;;;22.85;10.85;;;-1.00;99.90;;;;;;5071824;28;20511;-73
2022/12/18 10:59:59;;;;;;;21.48;10.95;;;-1.00;99.90;;;;;;5070192;28;20096;-73
2022/12/18 11:02:26;;;;;;;23.73;11.25;;;-1.00;99.90;;;;;;5071713;28;20110;-73
2022/12/18 11:04:52;;;;;;;23.52;11.75;;;-0.90;99.90;;;;;;5069917;28;20028;-73
2022/12/18 11:07:18;;;;;;;20.55;12.18;;;-0.90;99.90;;;;;;5072207;28;20021;-73
2022/12/18 11:09:58;;;;;;;22.50;11.50;;;-0.80;99.90;;;;;;5071395;28;20032;-73
2022/12/18 11:12:24;;;;;;;26.77;12.50;;;-0.80;99.90;;;;;;5070888;28;20036;-73
2022/12/18 11:14:52;;;;;;;26.20;11.93;;;-0.70;99.90;;;;;;5071359;28;20381;-73
2022/12/18 11:17:30;;;;;;;20.00;10.55;;;-0.70;99.90;;;;;;5072419;28;20431;-73
2022/12/18 11:20:00;;;;;;;23.10;11.00;;;-0.60;99.90;;;;;;5070881;28;20041;-73
2022/12/18 11:22:27;;;;;;;23.98;11.13;;;-0.50;99.90;;;;;;5070850;28;20107;-73
2022/12/18 11:24:58;;;;;;;27.15;12.65;;;-0.50;99.90;;;;;;5071560;28;20484;-74
2022/12/18 11:27:24;;;;;;;22.25;11.13;;;-0.40;99.90;;;;;;5072169;28;20598;-73
2022/12/18 11:29:51;;;;;;;24.33;11.65;;;-0.40;99.90;;;;;;5072431;28;20040;-73
2022/12/18 11:32:47;;;;;;;26.08;12.57;;;-0.30;99.90;;;;;;5075240;28;20048;-73
2022/12/18 11:35:43;;;;;;;23.75;10.65;;;-0.30;99.90;;;;;;5075373;28;20037;-73
2022/12/18 11:38:29;;;;;;;23.70;11.43;;;-0.30;99.90;;;;;;5072554;28;20119;-73
2022/12/18 11:41:21;;;;;;;23.23;11.45;;;-0.30;99.90;;;;;;5075064;28;20412;-73
2022/12/18 11:44:00;;;;;;;26.33;12.23;;;-0.20;99.90;;;;;;5075734;28;20094;-73
2022/12/18 11:46:32;;;;;;;23.45;11.60;;;-0.20;99.90;;;;;;5075955;28;20500;-74
2022/12/18 11:49:06;;;;;;;22.77;11.90;;;-0.20;99.90;;;;;;5074020;28;20052;-73
2022/12/18 11:52:07;;;;;;;20.30;11.57;;;-0.10;99.90;;;;;;5070886;28;20044;-73
2022/12/18 11:54:33;;;;;;;24.05;11.50;;;-0.10;99.90;;;;;;5056584;28;20124;-74
2022/12/18 11:57:20;;;;;;;23.10;11.23;;;-0.10;99.90;;;;;;5074129;28;20064;-73
2022/12/18 12:00:00;;;;;;;24.10;12.15;;;-0.10;99.90;;;;;;5075631;28;20086;-74
2022/12/18 12:02:48;;;;;;;27.40;11.60;;;0.00;99.90;;;;;;5075036;28;20035;-73
2022/12/18 12:05:37;;;;;;;21.52;11.48;;;0.00;99.90;;;;;;5064617;28;20043;-73
2022/12/18 12:08:21;;;;;;;24.15;11.80;;;0.00;99.90;;;;;;5055683;28;20110;-74
2022/12/18 12:11:13;;;;;;;21.95;11.32;;;0.10;99.90;;;;;;5066610;28;20445;-74
2022/12/18 12:14:12;;;;;;;24.30;11.55;;;0.10;99.90;;;;;;5074716;28;20496;-74
2022/12/18 12:16:50;;;;;;;22.23;10.95;;;0.10;99.90;;;;;;5061237;28;20037;-73
2022/12/18 12:19:24;;;;;;;23.70;12.02;;;0.10;99.90;;;;;;5062183;28;20028;-73
2022/12/18 12:21:55;;;;;;;22.10;11.10;;;0.10;99.90;;;;;;5074203;28;20029;-73
2022/12/18 12:24:39;;;;;;;25.02;11.40;;;0.10;99.90;;;;;;5071659;28;20020;-73
2022/12/18 12:27:23;;;;;;;26.63;12.60;;;0.10;99.90;;;;;;5071413;28;20035;-73
2022/12/18 12:30:07;;;;;;;23.35;10.80;;;0.20;99.90;;;;;;5068308;28;20017;-73
2022/12/18 12:32:38;;;;;;;21.98;10.63;;;0.20;99.90;;;;;;5072368;28;20111;-73
2022/12/18 12:35:31;;;;;;;28.27;12.82;;;0.20;99.90;;;;;;5073721;28;20022;-73
2022/12/18 12:38:19;;;;;;;21.05;10.20;;;0.20;99.90;;;;;;5065499;28;20115;-73
2022/12/18 12:40:53;;;;;;;25.30;13.15;;;0.30;99.90;;;;;;5054973;28;20020;-73
2022/12/18 12:43:37;;;;;;;26.13;12.35;;;0.30;99.90;;;;;;5065888;28;20480;-73
2022/12/18 12:46:15;;;;;;;25.60;11.77;;;0.30;99.90;;;;;;5072811;28;20024;-73
2022/12/18 12:48:50;;;;;;;24.48;11.15;;;0.30;99.90;;;;;;5068859;28;20044;-73
2022/12/18 12:51:37;;;;;;;22.90;11.63;;;0.30;99.90;;;;;;5072532;28;20028;-73